Time;durP1;ratioP1;P1;durP2;ratioP2;P2;SDS_P1;SDS_P2;PMS_P1;PMS_P2;Temp;Humidity;BMP_temperature;BMP_pressure;BME280_temperature;BME280_humidity;BME280_pressure;Samples;Min_cycle;Max_cycle;Signal;HPM_P1;HPM_P2
2021/07/26 00:01:29;;;;;;;4.2;3.8;;;;;;;;;;;;;
2021/07/26 00:03:56;;;;;;;4.8;3.9;;;;;;;;;;;;;
2021/07/26 00:06:21;;;;;;;5;4;;;;;;;;;;;;;
2021/07/26 00:08:46;;;;;;;4.8;3.8;;;;;;;;;;;;;
2021/07/26 00:11:12;;;;;;;5;3.9;;;;;;;;;;;;;
2021/07/26 00:13:38;;;;;;;5.3;4.4;;;;;;;;;;;;;
2021/07/26 00:16:03;;;;;;;4.3;3.9;;;;;;;;;;;;;
2021/07/26 00:18:29;;;;;;;5.2;4.1;;;;;;;;;;;;;
2021/07/26 00:20:54;;;;;;;4.9;4.2;;;;;;;;;;;;;
2021/07/26 00:23:20;;;;;;;7;4.3;;;;;;;;;;;;;
2021/07/26 00:25:45;;;;;;;6.5;4.3;;;;;;;;;;;;;
2021/07/26 00:28:10;;;;;;;5.9;4.2;;;;;;;;;;;;;
2021/07/26 00:30:37;;;;;;;4.9;4.3;;;;;;;;;;;;;
2021/07/26 00:33:02;;;;;;;5;4.4;;;;;;;;;;;;;
2021/07/26 00:35:27;;;;;;;6.5;4;;;;;;;;;;;;;
2021/07/26 00:37:54;;;;;;;5.9;4;;;;;;;;;;;;;
2021/07/26 00:40:19;;;;;;;5.8;4.1;;;;;;;;;;;;;
2021/07/26 00:42:45;;;;;;;5;4;;;;;;;;;;;;;
2021/07/26 00:45:10;;;;;;;5.8;4.1;;;;;;;;;;;;;
2021/07/26 00:47:35;;;;;;;5.2;3.9;;;;;;;;;;;;;
2021/07/26 00:50:00;;;;;;;5.2;4.1;;;;;;;;;;;;;
2021/07/26 00:52:25;;;;;;;4.7;4.3;;;;;;;;;;;;;
2021/07/26 00:54:50;;;;;;;5.3;4.2;;;;;;;;;;;;;
2021/07/26 00:57:15;;;;;;;4.9;4.4;;;;;;;;;;;;;
2021/07/26 00:59:40;;;;;;;7.7;4.2;;;;;;;;;;;;;
2021/07/26 01:02:05;;;;;;;4.4;4;;;;;;;;;;;;;
2021/07/26 01:04:31;;;;;;;5;4;;;;;;;;;;;;;
2021/07/26 01:06:56;;;;;;;4.8;4;;;;;;;;;;;;;
2021/07/26 01:09:21;;;;;;;6.2;4.4;;;;;;;;;;;;;
2021/07/26 01:11:46;;;;;;;5.8;4.1;;;;;;;;;;;;;
2021/07/26 01:14:11;;;;;;;6;4.2;;;;;;;;;;;;;
2021/07/26 01:16:36;;;;;;;4.8;4.3;;;;;;;;;;;;;
2021/07/26 01:19:01;;;;;;;6.7;4.3;;;;;;;;;;;;;
2021/07/26 01:21:26;;;;;;;6;4.5;;;;;;;;;;;;;
2021/07/26 01:23:52;;;;;;;6.3;4.3;;;;;;;;;;;;;
2021/07/26 01:26:17;;;;;;;6.7;4.3;;;;;;;;;;;;;
2021/07/26 01:28:43;;;;;;;7.5;4.5;;;;;;;;;;;;;
2021/07/26 01:31:10;;;;;;;5.5;4.6;;;;;;;;;;;;;
2021/07/26 01:33:34;;;;;;;5.7;4.2;;;;;;;;;;;;;
2021/07/26 01:36:00;;;;;;;5.2;4.4;;;;;;;;;;;;;
2021/07/26 01:38:26;;;;;;;5.9;4.2;;;;;;;;;;;;;
2021/07/26 01:40:53;;;;;;;4.9;4.4;;;;;;;;;;;;;
2021/07/26 01:43:17;;;;;;;5.9;4.6;;;;;;;;;;;;;
2021/07/26 01:45:42;;;;;;;7;4.4;;;;;;;;;;;;;
2021/07/26 01:48:07;;;;;;;6.1;4.5;;;;;;;;;;;;;
2021/07/26 01:50:32;;;;;;;6;4.7;;;;;;;;;;;;;
2021/07/26 01:53:00;;;;;;;6;5;;;;;;;;;;;;;
2021/07/26 01:55:25;;;;;;;6.4;4.8;;;;;;;;;;;;;
2021/07/26 01:57:52;;;;;;;5.3;4.6;;;;;;;;;;;;;
2021/07/26 02:00:17;;;;;;;5.3;4.8;;;;;;;;;;;;;
2021/07/26 02:02:43;;;;;;;5.6;4.9;;;;;;;;;;;;;
2021/07/26 02:05:09;;;;;;;6.6;4.6;;;;;;;;;;;;;
2021/07/26 02:07:34;;;;;;;6.4;4.5;;;;;;;;;;;;;
2021/07/26 02:09:59;;;;;;;5.2;4.7;;;;;;;;;;;;;
2021/07/26 02:12:26;;;;;;;6.9;4.7;;;;;;;;;;;;;
2021/07/26 02:14:51;;;;;;;5;4.5;;;;;;;;;;;;;
2021/07/26 02:17:18;;;;;;;5.1;4.6;;;;;;;;;;;;;
2021/07/26 02:19:43;;;;;;;6.6;4.9;;;;;;;;;;;;;
2021/07/26 02:22:09;;;;;;;7.4;5;;;;;;;;;;;;;
2021/07/26 02:24:34;;;;;;;5.9;5;;;;;;;;;;;;;
2021/07/26 02:26:59;;;;;;;7.2;5.1;;;;;;;;;;;;;
2021/07/26 02:29:24;;;;;;;6.2;4.8;;;;;;;;;;;;;
2021/07/26 02:31:49;;;;;;;7.1;4.8;;;;;;;;;;;;;
2021/07/26 02:34:14;;;;;;;5.9;4.6;;;;;;;;;;;;;
2021/07/26 02:36:39;;;;;;;8.3;5.3;;;;;;;;;;;;;
2021/07/26 02:39:05;;;;;;;7.6;4.6;;;;;;;;;;;;;
2021/07/26 02:41:30;;;;;;;7.9;4.9;;;;;;;;;;;;;
2021/07/26 02:43:56;;;;;;;6.7;4.9;;;;;;;;;;;;;
2021/07/26 02:46:21;;;;;;;5.3;4.8;;;;;;;;;;;;;
2021/07/26 02:48:46;;;;;;;6.8;4.8;;;;;;;;;;;;;
2021/07/26 02:51:14;;;;;;;6;4.9;;;;;;;;;;;;;
2021/07/26 02:53:38;;;;;;;8.7;4.9;;;;;;;;;;;;;
2021/07/26 02:56:03;;;;;;;6.9;5.5;;;;;;;;;;;;;
2021/07/26 02:58:30;;;;;;;6;5.1;;;;;;;;;;;;;
2021/07/26 03:00:53;;;;;;;5.4;4.9;;;;;;;;;;;;;
2021/07/26 03:03:18;;;;;;;8;5.6;;;;;;;;;;;;;
2021/07/26 03:05:45;;;;;;;6.5;5.4;;;;;;;;;;;;;
2021/07/26 03:08:11;;;;;;;7.5;5.5;;;;;;;;;;;;;
2021/07/26 03:10:37;;;;;;;7.3;5;;;;;;;;;;;;;
2021/07/26 03:13:02;;;;;;;7.4;5.3;;;;;;;;;;;;;
2021/07/26 03:15:28;;;;;;;6.3;5.6;;;;;;;;;;;;;
2021/07/26 03:17:53;;;;;;;5.8;5.2;;;;;;;;;;;;;
2021/07/26 03:20:18;;;;;;;6.7;5.3;;;;;;;;;;;;;
2021/07/26 03:22:45;;;;;;;6.1;5.5;;;;;;;;;;;;;
2021/07/26 03:25:09;;;;;;;8.5;6;;;;;;;;;;;;;
2021/07/26 03:27:34;;;;;;;6.7;5.4;;;;;;;;;;;;;
2021/07/26 03:30:00;;;;;;;7.1;5.6;;;;;;;;;;;;;
2021/07/26 03:32:25;;;;;;;7.5;5.9;;;;;;;;;;;;;
2021/07/26 03:34:51;;;;;;;7.9;6;;;;;;;;;;;;;
2021/07/26 03:37:16;;;;;;;6.9;5.8;;;;;;;;;;;;;
2021/07/26 03:39:42;;;;;;;6.5;5.8;;;;;;;;;;;;;
2021/07/26 03:42:08;;;;;;;8.2;5.8;;;;;;;;;;;;;
2021/07/26 03:44:33;;;;;;;7;5.7;;;;;;;;;;;;;
2021/07/26 03:46:58;;;;;;;7.9;6;;;;;;;;;;;;;
2021/07/26 03:49:24;;;;;;;6.5;5.2;;;;;;;;;;;;;
2021/07/26 03:51:49;;;;;;;6.9;5.3;;;;;;;;;;;;;
2021/07/26 03:54:14;;;;;;;8.1;5.5;;;;;;;;;;;;;
2021/07/26 03:56:41;;;;;;;8.6;5.9;;;;;;;;;;;;;
2021/07/26 03:59:06;;;;;;;6;5.4;;;;;;;;;;;;;
2021/07/26 04:02:30;;;;;;;6.3;5.7;;;;;;;16.99;91.45508;935.2751;;;;
2021/07/26 04:04:58;;;;;;;6.6;5.6;;;;;;;17.07;91.54883;935.3738;;;;
2021/07/26 04:09:56;;;;;;;6.8;6.1;;;;;;;17.17;91.9541;935.2211;;;;
2021/07/26 04:12:21;;;;;;;7.5;6.2;;;;;;;17.22;92.58984;935.3103;;;;
2021/07/26 04:14:42;;;;;;;7.6;6.2;;;;;;;17.13;93.30273;935.3033;;;;
2021/07/26 04:17:07;;;;;;;8.8;6.2;;;;;;;17.12;94.15625;935.2649;;;;
2021/07/26 04:19:36;;;;;;;7;6.1;;;;;;;17.16;93.3877;935.2262;;;;
2021/07/26 04:22:04;;;;;;;7.3;5.9;;;;;;;17.03;93.03613;935.2297;;;;
2021/07/26 04:24:29;;;;;;;6.2;5.6;;;;;;;17.17;92.25781;935.0602;;;;
2021/07/26 04:29:29;;;;;;;5.6;4.9;;;;;;;17.43;88.49414;935.0213;;;;
2021/07/26 04:31:59;;;;;;;8.3;5.3;;;;;;;17.52;90.11133;935.0759;;;;
2021/07/26 04:34:24;;;;;;;7.4;5.4;;;;;;;17.47;90.25488;935.0784;;;;
2021/07/26 04:36:53;;;;;;;5.8;5.2;;;;;;;17.55;89.99121;935.1217;;;;
2021/07/26 04:39:22;;;;;;;6.4;5.4;;;;;;;17.55;88.84277;935.092;;;;
2021/07/26 04:41:47;;;;;;;8.3;5.5;;;;;;;17.61;88.7627;935.0559;;;;
2021/07/26 04:44:12;;;;;;;5.8;5.2;;;;;;;17.38;91.25684;935.093;;;;
2021/07/26 04:46:38;;;;;;;5.6;5;;;;;;;17.44;91.93945;935.1242;;;;
2021/07/26 04:49:03;;;;;;;5.4;4.9;;;;;;;17.43;91.94922;935.1656;;;;
2021/07/26 04:51:29;;;;;;;5.5;4.6;;;;;;;17.38;90.85156;935.1421;;;;
2021/07/26 04:53:55;;;;;;;5.8;4.9;;;;;;;17.34;91.88574;935.1188;;;;
2021/07/26 04:56:22;;;;;;;6.3;4.9;;;;;;;17.47;90.58984;935.1373;;;;
2021/07/26 04:58:47;;;;;;;5.2;4.7;;;;;;;17.61;89.28516;935.1381;;;;
2021/07/26 05:01:14;;;;;;;5.3;4.8;;;;;;;17.81;89.47656;935.106;;;;
2021/07/26 05:03:39;;;;;;;7.3;5.5;;;;;;;17.92;89.91602;935.1367;;;;
2021/07/26 05:06:06;;;;;;;7.9;5.5;;;;;;;18.05;89.74512;935.2192;;;;
2021/07/26 05:08:31;;;;;;;7.4;5.6;;;;;;;18.15;89.2998;935.312;;;;
2021/07/26 05:11:00;;;;;;;6.5;5.1;;;;;;;18.24;88.29785;935.384;;;;
2021/07/26 05:13:29;;;;;;;6.2;4.4;;;;;;;18.18;88.29492;935.37;;;;
2021/07/26 05:15:58;;;;;;;6.7;5.2;;;;;;;18.2;89.10156;935.3583;;;;
2021/07/26 05:18:29;;;;;;;6.5;5;;;;;;;18.19;86.85547;935.4142;;;;
2021/07/26 05:21:00;;;;;;;6.7;4.6;;;;;;;18.06;87.41211;935.435;;;;
2021/07/26 05:26:55;;;;;;;7;4.9;;;;;;;18.04;87.80273;935.5063;;;;
2021/07/26 05:29:21;;;;;;;5.4;4.9;;;;;;;18.06;88.80762;935.5147;;;;
2021/07/26 05:31:50;;;;;;;7.8;5.5;;;;;;;18.15;88.74219;935.54;;;;
2021/07/26 05:34:21;;;;;;;5.8;4.9;;;;;;;18.23;87.8291;935.627;;;;
2021/07/26 05:36:51;;;;;;;6.6;5.2;;;;;;;18.27;87.76855;935.5276;;;;
2021/07/26 05:39:17;;;;;;;6.1;5.1;;;;;;;18.29;87.70215;935.4998;;;;
2021/07/26 05:41:43;;;;;;;6.8;4.9;;;;;;;18.43;87.25293;935.3781;;;;
2021/07/26 05:44:08;;;;;;;6.1;5;;;;;;;18.51;87.13086;935.3331;;;;
2021/07/26 05:46:36;;;;;;;6;5.4;;;;;;;18.57;86.67676;935.1487;;;;
2021/07/26 05:49:01;;;;;;;6.6;5.4;;;;;;;18.61;86.59082;935.1564;;;;
2021/07/26 05:51:31;;;;;;;5.5;5;;;;;;;18.6;86.8916;935.2601;;;;
2021/07/26 05:53:56;;;;;;;6.6;6;;;;;;;18.67;87.26563;935.3418;;;;
2021/07/26 05:56:21;;;;;;;8.8;6.2;;;;;;;18.59;87.56445;935.3578;;;;
2021/07/26 05:58:49;;;;;;;6.6;5.9;;;;;;;18.61;86.71875;935.3347;;;;
2021/07/26 06:01:25;;;;;;;8.7;5.8;;;;;;;18.66;86.40332;935.3856;;;;
2021/07/26 06:03:41;;;;;;;6.7;5.5;;;;;;;18.67;86.12598;935.3716;;;;
2021/07/26 06:06:06;;;;;;;5.9;5.4;;;;;;;18.68;86.34863;935.4561;;;;
2021/07/26 06:08:33;;;;;;;8.2;5.6;;;;;;;18.59;87.50391;935.4927;;;;
2021/07/26 06:10:58;;;;;;;6;5.3;;;;;;;18.19;88.00781;935.5897;;;;
2021/07/26 06:13:26;;;;;;;6.2;5.2;;;;;;;18.05;89.36133;935.6617;;;;
2021/07/26 06:15:51;;;;;;;6.7;4.9;;;;;;;17.81;90.21875;935.6809;;;;
2021/07/26 06:18:19;;;;;;;5.6;5;;;;;;;18.02;89.7627;935.7081;;;;
2021/07/26 06:20:52;;;;;;;8;5.3;;;;;;;18.19;88.82324;935.7533;;;;
2021/07/26 06:23:20;;;;;;;8.1;5.4;;;;;;;18.38;88.11523;935.7257;;;;
2021/07/26 06:25:43;;;;;;;6.6;5.1;;;;;;;18.5;87.30371;935.6786;;;;
2021/07/26 06:28:09;;;;;;;6.4;4.6;;;;;;;18.4;86.52637;935.618;;;;
2021/07/26 06:30:34;;;;;;;5.5;4.5;;;;;;;18.21;88.66211;935.615;;;;
2021/07/26 06:33:04;;;;;;;7.3;5.4;;;;;;;18.12;89.65625;935.6792;;;;
2021/07/26 06:35:44;;;;;;;7.6;5.5;;;;;;;18.06;90.15527;935.6387;;;;
2021/07/26 06:38:12;;;;;;;10.9;5.4;;;;;;;18.17;89.58496;935.6346;;;;
2021/07/26 06:40:36;;;;;;;7.8;5.3;;;;;;;18.08;88.28613;935.6287;;;;
2021/07/26 06:43:07;;;;;;;7.9;5.5;;;;;;;18.18;88.80762;935.5295;;;;
2021/07/26 06:45:35;;;;;;;6.9;5.4;;;;;;;18.22;88.06152;935.553;;;;
2021/07/26 06:48:00;;;;;;;8.6;5.6;;;;;;;18.21;88.13965;935.6287;;;;
2021/07/26 06:50:29;;;;;;;7.8;5;;;;;;;18.23;87.70313;935.7204;;;;
2021/07/26 06:52:54;;;;;;;11.3;5.5;;;;;;;18.3;88.22754;935.7422;;;;
2021/07/26 06:55:22;;;;;;;5.5;4.7;;;;;;;18.24;85.92676;935.6501;;;;
2021/07/26 06:57:47;;;;;;;6.4;4.8;;;;;;;18.33;87.33789;935.689;;;;
2021/07/26 07:00:14;;;;;;;8.4;4.3;;;;;;;18.04;86.3623;935.6394;;;;
2021/07/26 07:02:43;;;;;;;8.5;3.9;;;;;;;18.05;87.36328;935.5158;;;;
2021/07/26 07:05:08;;;;;;;5.5;3.7;;;;;;;18.37;86.7998;935.4695;;;;
2021/07/26 07:07:34;;;;;;;9.2;4.4;;;;;;;18.5;84.33691;935.44;;;;
2021/07/26 07:09:59;;;;;;;12.5;4.3;;;;;;;18.57;84.89746;935.4697;;;;
2021/07/26 07:12:26;;;;;;;8.2;4.4;;;;;;;18.63;83.90918;935.5026;;;;
2021/07/26 07:14:51;;;;;;;10.5;4.1;;;;;;;18.89;83.98047;935.4531;;;;
2021/07/26 07:17:17;;;;;;;10.4;4.3;;;;;;;19.12;82.88379;935.3996;;;;
2021/07/26 07:19:49;;;;;;;8.3;4.2;;;;;;;19.31;81.3125;935.4671;;;;
2021/07/26 07:22:18;;;;;;;6;3.6;;;;;;;19.3;81.37988;935.5884;;;;
2021/07/26 07:24:43;;;;;;;6.9;3.3;;;;;;;19.26;80.42871;935.6121;;;;
2021/07/26 07:27:09;;;;;;;6.7;3.8;;;;;;;19.15;82.18066;935.5995;;;;
2021/07/26 07:29:35;;;;;;;7.4;3.8;;;;;;;19.35;81.42383;935.5636;;;;
2021/07/26 07:32:02;;;;;;;8.1;4;;;;;;;19.59;81.44727;935.4949;;;;
2021/07/26 07:34:27;;;;;;;6.5;3.6;;;;;;;19.77;79.51953;935.5126;;;;
2021/07/26 07:36:58;;;;;;;4.6;3.5;;;;;;;19.84;79.26465;935.4832;;;;
2021/07/26 07:39:21;;;;;;;4.5;3.6;;;;;;;19.74;77.05273;935.4667;;;;
2021/07/26 07:41:49;;;;;;;5.6;3.7;;;;;;;19.9;76.76758;935.5419;;;;
2021/07/26 07:44:15;;;;;;;5.7;3;;;;;;;19.96;75.5166;935.5589;;;;
2021/07/26 07:46:41;;;;;;;5;3.5;;;;;;;19.88;76.15625;935.4878;;;;
2021/07/26 07:49:08;;;;;;;4.8;3.1;;;;;;;20.15;77.1582;935.4651;;;;
2021/07/26 07:51:34;;;;;;;3.8;3.4;;;;;;;20.41;76.07129;935.4411;;;;
2021/07/26 07:54:00;;;;;;;5.5;3.5;;;;;;;20.81;74.57617;935.3979;;;;
2021/07/26 07:56:25;;;;;;;5;3.2;;;;;;;21.2;72.21875;935.4084;;;;
2021/07/26 07:58:52;;;;;;;4.8;3.2;;;;;;;22.11;70.31738;935.4504;;;;
2021/07/26 08:01:19;;;;;;;4.8;3.2;;;;;;;22.83;66.13281;935.3348;;;;
2021/07/26 08:03:44;;;;;;;4.4;3.3;;;;;;;23.33;63.09277;935.3704;;;;
2021/07/26 08:06:10;;;;;;;6.6;3.3;;;;;;;23.87;61.33203;935.4586;;;;
2021/07/26 08:08:35;;;;;;;3.7;3;;;;;;;24.26;58.18066;935.4556;;;;
2021/07/26 08:11:05;;;;;;;3.5;3.1;;;;;;;24.63;57.77051;935.4871;;;;
2021/07/26 08:13:29;;;;;;;4.3;2.9;;;;;;;25.09;56.74414;935.4835;;;;
2021/07/26 08:16:00;;;;;;;3.8;3;;;;;;;25.92;53.3252;935.4728;;;;
2021/07/26 08:18:33;;;;;;;3.7;2.7;;;;;;;26.35;53.81445;935.4305;;;;
2021/07/26 08:20:58;;;;;;;4;2.8;;;;;;;27.86;49.13867;935.3766;;;;
2021/07/26 08:23:26;;;;;;;3.4;2.5;;;;;;;28.85;45.04492;935.4067;;;;
2021/07/26 08:25:51;;;;;;;3.1;2.4;;;;;;;30.28;43.25391;935.3741;;;;
2021/07/26 08:28:18;;;;;;;2.4;2.2;;;;;;;30.17;41.3584;935.3594;;;;
2021/07/26 08:30:44;;;;;;;2.8;2.5;;;;;;;31.69;38;935.3256;;;;
2021/07/26 08:33:12;;;;;;;2.2;1.8;;;;;;;31.35;39.53906;935.3094;;;;
2021/07/26 08:35:42;;;;;;;2.1;1.9;;;;;;;31.34;37.63672;935.3351;;;;
2021/07/26 08:38:07;;;;;;;2.3;2.1;;;;;;;29.41;40.28711;935.2935;;;;
2021/07/26 08:40:36;;;;;;;3.3;1.9;;;;;;;29.92;39.61719;935.2888;;;;
2021/07/26 08:43:07;;;;;;;2.3;2.1;;;;;;;32.01;36.55273;935.2082;;;;
2021/07/26 08:45:30;;;;;;;2.2;1.6;;;;;;;32.06;36.24512;935.2139;;;;
2021/07/26 08:47:59;;;;;;;2.1;1.9;;;;;;;33.09;34.45313;935.1763;;;;
2021/07/26 08:50:24;;;;;;;1.9;1.6;;;;;;;34.04;34.53809;935.1819;;;;
2021/07/26 08:52:52;;;;;;;1.9;1.7;;;;;;;33.09;36.32715;935.1185;;;;
2021/07/26 08:55:17;;;;;;;1.8;1.7;;;;;;;33.89;32.92578;935.104;;;;
2021/07/26 08:57:46;;;;;;;2.2;1.9;;;;;;;34.19;33.74219;935.0611;;;;
2021/07/26 09:00:12;;;;;;;1.8;1.6;;;;;;;31.65;36.87109;935.0413;;;;
2021/07/26 09:02:38;;;;;;;1.8;1.6;;;;;;;31.36;37.32617;935.0439;;;;
2021/07/26 09:05:03;;;;;;;1.7;1.6;;;;;;;31.9;37.43164;934.9899;;;;
2021/07/26 09:07:31;;;;;;;2;1.8;;;;;;;33.6;33.54199;935.0175;;;;
2021/07/26 09:09:56;;;;;;;1.8;1.7;;;;;;;33.79;33.1709;934.9406;;;;
2021/07/26 09:12:24;;;;;;;2.6;2;;;;;;;30.7;37.02051;934.9565;;;;
2021/07/26 09:14:53;;;;;;;1.9;1.6;;;;;;;33.19;32.63379;934.9691;;;;
2021/07/26 09:17:20;;;;;;;1.6;1.5;;;;;;;33.7;31.25195;934.9656;;;;
2021/07/26 09:19:49;;;;;;;2.3;1.6;;;;;;;31.31;35.53906;934.8964;;;;
2021/07/26 09:22:14;;;;;;;2;1.8;;;;;;;31.83;34.30957;934.9168;;;;
2021/07/26 09:24:40;;;;;;;2;1.8;;;;;;;32.21;36.48535;934.865;;;;
2021/07/26 09:27:05;;;;;;;2.7;1.8;;;;;;;32.05;35.22559;934.8077;;;;
2021/07/26 09:29:34;;;;;;;2.1;1.7;;;;;;;30.73;40.04688;934.8158;;;;
2021/07/26 09:32:01;;;;;;;2.1;1.8;;;;;;;30.53;38.17773;934.8303;;;;
2021/07/26 09:34:27;;;;;;;2.3;1.9;;;;;;;31.08;40.87891;934.7946;;;;
2021/07/26 09:36:52;;;;;;;2;1.8;;;;;;;30.86;41.18164;934.7582;;;;
2021/07/26 09:39:23;;;;;;;2;1.8;;;;;;;31.78;39.78027;934.7762;;;;
2021/07/26 09:41:55;;;;;;;2.3;2;;;;;;;31.31;36.62793;934.7552;;;;
2021/07/26 09:44:24;;;;;;;2.3;2;;;;;;;32.63;36.0625;934.8451;;;;
2021/07/26 09:46:54;;;;;;;3.7;2.2;;;;;;;32.3;38.375;934.7866;;;;
2021/07/26 09:49:18;;;;;;;2.6;2.2;;;;;;;32.62;36.07422;934.8427;;;;
2021/07/26 09:51:46;;;;;;;4.5;2.2;;;;;;;31.97;36.46582;934.8123;;;;
2021/07/26 09:54:11;;;;;;;3.2;2.4;;;;;;;32.97;36.55859;934.8337;;;;
2021/07/26 09:56:42;;;;;;;3;2.4;;;;;;;32.76;37.52539;934.8481;;;;
2021/07/26 09:59:10;;;;;;;3.5;2.5;;;;;;;32.25;36.64453;934.7773;;;;
2021/07/26 10:01:35;;;;;;;4.3;3;;;;;;;33.29;34.55273;934.7957;;;;
2021/07/26 10:04:03;;;;;;;3;2.1;;;;;;;32.64;37.31152;934.822;;;;
2021/07/26 10:06:28;;;;;;;2.4;2;;;;;;;30.74;41.91211;934.8308;;;;
2021/07/26 10:08:55;;;;;;;4.1;2.8;;;;;;;31.36;39.91113;934.7991;;;;
2021/07/26 10:11:20;;;;;;;2.5;2.2;;;;;;;29.83;43.5332;934.7784;;;;
2021/07/26 10:13:45;;;;;;;2.7;2.1;;;;;;;29.55;43.89941;934.7062;;;;
2021/07/26 10:16:10;;;;;;;10;4.4;;;;;;;29.76;44.18359;934.7234;;;;
2021/07/26 10:18:42;;;;;;;3.3;2.3;;;;;;;29.58;44.52344;934.7251;;;;
2021/07/26 10:21:07;;;;;;;3.2;2.2;;;;;;;28.49;45.49805;934.7963;;;;
2021/07/26 10:23:34;;;;;;;2.6;2.2;;;;;;;28.41;48.60449;934.7611;;;;
2021/07/26 10:25:59;;;;;;;2.7;2.4;;;;;;;28.57;45.83887;934.7441;;;;
2021/07/26 10:28:28;;;;;;;2.2;2;;;;;;;28.13;48.33691;934.7305;;;;
2021/07/26 10:30:56;;;;;;;3.3;2.2;;;;;;;29.07;46.8418;934.7325;;;;
2021/07/26 10:33:20;;;;;;;4.3;2.4;;;;;;;29.96;44.75098;934.7128;;;;
2021/07/26 10:35:45;;;;;;;2.6;2.2;;;;;;;31.2;39.95605;934.7428;;;;
2021/07/26 10:38:12;;;;;;;2.5;2.3;;;;;;;30.57;42.32617;934.7276;;;;
2021/07/26 10:40:42;;;;;;;3.3;2.5;;;;;;;30.48;43.12988;934.7518;;;;
2021/07/26 10:43:11;;;;;;;2.5;2.2;;;;;;;30.56;44.08105;934.6975;;;;
2021/07/26 10:45:32;;;;;;;2.7;2.3;;;;;;;30.37;44.38574;934.6598;;;;
2021/07/26 10:47:57;;;;;;;3.6;2.4;;;;;;;29.42;47.5332;934.6696;;;;
2021/07/26 10:50:23;;;;;;;2.7;2;;;;;;;30.33;45.01465;934.712;;;;
2021/07/26 10:52:48;;;;;;;3.9;2.2;;;;;;;30.43;45;934.7417;;;;
2021/07/26 10:55:17;;;;;;;3.1;2.4;;;;;;;29.73;43.97754;934.7567;;;;
2021/07/26 10:57:43;;;;;;;3.4;2.3;;;;;;;29.54;45.01855;934.6781;;;;
2021/07/26 11:00:08;;;;;;;2.6;2.4;;;;;;;28.74;48.53223;934.6861;;;;
2021/07/26 11:02:34;;;;;;;4.8;2.6;;;;;;;28.49;50.27832;934.7662;;;;
2021/07/26 11:04:58;;;;;;;2.4;2.2;;;;;;;28.58;46.94629;934.7139;;;;
2021/07/26 11:08:55;;;;;;;3.9;2.5;;;;;;;28.54;48.20215;934.734;;;;
2021/07/26 11:11:23;;;;;;;2.6;2.2;;;;;;;27.69;49.32227;934.6899;;;;
2021/07/26 11:13:49;;;;;;;2.6;2.2;;;;;;;27.59;52.4209;934.6702;;;;
2021/07/26 11:16:18;;;;;;;3.2;2.5;;;;;;;27.62;52.56641;934.5753;;;;
2021/07/26 11:18:45;;;;;;;3.5;2.5;;;;;;;28.22;50.16406;934.5578;;;;
2021/07/26 11:21:16;;;;;;;4;2.6;;;;;;;27.65;51.28809;934.5687;;;;
2021/07/26 11:23:41;;;;;;;3.8;2.7;;;;;;;26.64;54.77344;934.5396;;;;
2021/07/26 11:26:09;;;;;;;3.7;2.9;;;;;;;26.4;55.42969;934.5258;;;;
2021/07/26 11:28:34;;;;;;;4.5;2.8;;;;;;;26.27;56.45605;934.5302;;;;
2021/07/26 11:31:07;;;;;;;4.6;2.9;;;;;;;26.28;56.33691;934.4816;;;;
2021/07/26 11:33:37;;;;;;;3.3;2.7;;;;;;;26.58;55.7959;934.5069;;;;
2021/07/26 11:36:03;;;;;;;4.2;2.9;;;;;;;26.25;59.17383;934.4827;;;;
2021/07/26 11:38:28;;;;;;;3.8;2.8;;;;;;;26.21;57.80859;934.454;;;;
2021/07/26 11:40:59;;;;;;;3.9;3;;;;;;;26.13;57.9873;934.4645;;;;
2021/07/26 11:43:29;;;;;;;2.9;2.6;;;;;;;26.71;53.91602;934.4001;;;;
2021/07/26 11:45:54;;;;;;;4.4;2.9;;;;;;;27.32;53.17188;934.3597;;;;
2021/07/26 11:48:21;;;;;;;3;2.7;;;;;;;27.04;55.65137;934.3173;;;;
2021/07/26 11:50:46;;;;;;;3.9;2.9;;;;;;;26.74;55.95801;934.3212;;;;
2021/07/26 11:53:14;;;;;;;3.2;2.9;;;;;;;26.77;52.71484;934.2317;;;;
2021/07/26 11:55:42;;;;;;;3.1;2.8;;;;;;;27;53.80957;934.1774;;;;
2021/07/26 11:58:09;;;;;;;3.5;3;;;;;;;27.21;52.85059;934.1753;;;;
2021/07/26 12:00:32;;;;;;;3.6;3.2;;;;;;;27.33;53.77637;934.0647;;;;
2021/07/26 12:02:58;;;;;;;4.3;3.2;;;;;;;27.01;52.20996;934.0217;;;;
2021/07/26 12:05:23;;;;;;;4.1;3.2;;;;;;;27.36;52.30957;933.9883;;;;
2021/07/26 12:07:51;;;;;;;3.7;3.2;;;;;;;27.56;53.06934;933.9734;;;;
2021/07/26 12:10:16;;;;;;;3.5;3.1;;;;;;;27.9;51.31641;933.93;;;;
2021/07/26 12:12:45;;;;;;;4.4;3.4;;;;;;;27.78;52.64453;933.9562;;;;
2021/07/26 12:15:14;;;;;;;3.8;3.3;;;;;;;27.5;54.41504;933.9152;;;;
2021/07/26 12:17:39;;;;;;;4.1;3.4;;;;;;;27.65;53.78125;933.8995;;;;
2021/07/26 12:20:10;;;;;;;4.1;3.7;;;;;;;27.63;53.09082;933.9326;;;;
2021/07/26 12:22:36;;;;;;;4.4;3.6;;;;;;;27.74;54.37305;933.8897;;;;
2021/07/26 12:25:05;;;;;;;5.3;3.8;;;;;;;27.92;53.0166;933.9915;;;;
2021/07/26 12:27:33;;;;;;;4.2;3.8;;;;;;;28.17;51.67969;933.9009;;;;
2021/07/26 12:29:58;;;;;;;4.8;3.8;;;;;;;27.98;52.72754;933.8425;;;;
2021/07/26 12:32:27;;;;;;;5.3;4;;;;;;;28.13;51.69922;933.7551;;;;
2021/07/26 12:34:52;;;;;;;4.2;3.8;;;;;;;28.32;51.08984;933.7082;;;;
2021/07/26 12:37:17;;;;;;;4.5;3.8;;;;;;;28.2;51.64746;933.6919;;;;
2021/07/26 12:39:47;;;;;;;4.2;3.8;;;;;;;28.02;52.49512;933.567;;;;
2021/07/26 12:42:12;;;;;;;5.2;4.3;;;;;;;27.93;53.69434;933.6448;;;;
2021/07/26 12:44:43;;;;;;;4.9;4.1;;;;;;;27.99;54.42773;933.6067;;;;
2021/07/26 12:47:08;;;;;;;4.5;4.1;;;;;;;28.26;52.2373;933.5302;;;;
2021/07/26 12:49:33;;;;;;;5.5;4.7;;;;;;;27.98;53.62988;933.5051;;;;
2021/07/26 12:52:01;;;;;;;5.4;4.3;;;;;;;27.6;54.68848;933.43;;;;
2021/07/26 12:54:26;;;;;;;6.4;4.2;;;;;;;27.79;53.73926;933.3569;;;;
2021/07/26 12:56:54;;;;;;;5.1;4.6;;;;;;;27.73;53.18457;933.2989;;;;
2021/07/26 12:59:27;;;;;;;4.8;3.7;;;;;;;27.72;53.31348;933.243;;;;
2021/07/26 13:01:55;;;;;;;4.4;4;;;;;;;27.33;56.65918;933.2209;;;;
2021/07/26 13:04:20;;;;;;;4.9;4;;;;;;;27.49;53.71387;933.2123;;;;
2021/07/26 13:06:48;;;;;;;6.3;4.2;;;;;;;27.49;52.83594;933.2484;;;;
2021/07/26 13:09:12;;;;;;;4.7;3.7;;;;;;;27.76;52.21387;933.1513;;;;
2021/07/26 13:11:40;;;;;;;6.9;3.8;;;;;;;27.92;53.62207;933.2361;;;;
2021/07/26 13:14:05;;;;;;;4.8;4.1;;;;;;;27.51;54.19043;933.162;;;;
2021/07/26 13:16:31;;;;;;;5.8;4.5;;;;;;;27.34;55.43945;933.1848;;;;
2021/07/26 13:19:01;;;;;;;4.7;4.2;;;;;;;26.71;55.75195;933.0907;;;;
2021/07/26 13:21:26;;;;;;;5.4;4.3;;;;;;;26.82;56.99902;933.1319;;;;
2021/07/26 13:23:55;;;;;;;6.3;4.4;;;;;;;27.07;55.09766;933.1117;;;;
2021/07/26 13:26:23;;;;;;;6.4;4.5;;;;;;;26.77;56.44727;933.1997;;;;
2021/07/26 13:28:49;;;;;;;4.5;4.1;;;;;;;27.01;55.00684;933.1244;;;;
2021/07/26 13:31:21;;;;;;;5.2;4.6;;;;;;;26.55;58.37402;933.1024;;;;
2021/07/26 13:33:47;;;;;;;7.3;4.4;;;;;;;26.77;55.7959;933.0664;;;;
2021/07/26 13:36:12;;;;;;;5.2;4.2;;;;;;;27.03;57.65234;933.11;;;;
2021/07/26 13:38:42;;;;;;;4.3;3.9;;;;;;;27.54;55.84375;933.1021;;;;
2021/07/26 13:41:12;;;;;;;5.5;3.8;;;;;;;27.67;54.49512;933.1105;;;;
2021/07/26 13:43:37;;;;;;;5.7;4.4;;;;;;;27.96;53.13965;933.1042;;;;
2021/07/26 13:46:04;;;;;;;7.6;4.2;;;;;;;27.94;53.03125;933.0773;;;;
2021/07/26 13:48:29;;;;;;;4.4;4;;;;;;;27.36;54.06543;933.0283;;;;
2021/07/26 13:50:57;;;;;;;7;4.6;;;;;;;27.46;54.33887;932.988;;;;
2021/07/26 13:53:22;;;;;;;5.2;4.6;;;;;;;27.15;54.88086;933.0072;;;;
2021/07/26 13:55:48;;;;;;;5.8;4.6;;;;;;;27.08;54.48242;932.9911;;;;
2021/07/26 13:58:13;;;;;;;6.3;4.4;;;;;;;27.25;54.87109;933.0491;;;;
2021/07/26 14:00:41;;;;;;;5.2;4.3;;;;;;;27.18;54.81543;933.0334;;;;
2021/07/26 14:03:06;;;;;;;6.9;5;;;;;;;27.02;54.53516;933.0472;;;;
2021/07/26 14:05:32;;;;;;;5.9;4.8;;;;;;;26.92;54.89063;933.0828;;;;
2021/07/26 14:07:57;;;;;;;5.1;4.6;;;;;;;26.53;56.13184;933.0089;;;;
2021/07/26 14:10:30;;;;;;;7;4.8;;;;;;;26.67;56.13867;932.9916;;;;
2021/07/26 14:12:57;;;;;;;6.1;4.7;;;;;;;26.64;56.65527;932.934;;;;
2021/07/26 14:15:32;;;;;;;6.1;4.8;;;;;;;26.68;56.82617;932.9256;;;;
2021/07/26 14:17:57;;;;;;;5.7;4.6;;;;;;;26.63;56.47656;932.986;;;;
2021/07/26 14:20:29;;;;;;;5;4.5;;;;;;;26.66;56.55176;932.9302;;;;
2021/07/26 14:22:55;;;;;;;5.5;5;;;;;;;26.38;57.04883;932.9636;;;;
2021/07/26 14:25:24;;;;;;;5.6;5;;;;;;;26.2;58.80078;932.8972;;;;
2021/07/26 14:27:55;;;;;;;5.7;5.2;;;;;;;26.3;58.51855;932.9783;;;;
2021/07/26 14:30:25;;;;;;;8.2;5.8;;;;;;;26.12;58.61328;933.1002;;;;
2021/07/26 14:32:50;;;;;;;6;5.4;;;;;;;26.03;58.75586;933.2336;;;;
2021/07/26 14:35:23;;;;;;;7.2;5.7;;;;;;;25.45;60.36816;933.3239;;;;
2021/07/26 14:37:53;;;;;;;6.2;5.6;;;;;;;25.43;60.08203;933.421;;;;
2021/07/26 14:40:25;;;;;;;5.3;4.9;;;;;;;25.4;61.4248;933.5502;;;;
2021/07/26 14:42:56;;;;;;;5.8;5.2;;;;;;;25.26;60.38867;933.4671;;;;
2021/07/26 14:45:25;;;;;;;5.9;4.9;;;;;;;25.51;61.21484;933.4125;;;;
2021/07/26 14:47:50;;;;;;;5.7;5.2;;;;;;;25.51;61.66406;933.3597;;;;
2021/07/26 14:50:21;;;;;;;6;5.4;;;;;;;25.42;61.4375;933.3906;;;;
2021/07/26 14:52:50;;;;;;;6.2;5.6;;;;;;;25.29;62.70801;933.3928;;;;
2021/07/26 14:55:15;;;;;;;6.8;5.8;;;;;;;24.48;68.46289;933.4633;;;;
2021/07/26 14:57:40;;;;;;;6.9;6;;;;;;;24.5;68.30176;933.418;;;;
2021/07/26 15:00:05;;;;;;;7.4;5.9;;;;;;;24.49;67.31055;933.4292;;;;
2021/07/26 15:02:33;;;;;;;7.3;5.7;;;;;;;24.69;65.70117;933.3995;;;;
2021/07/26 15:04:58;;;;;;;6.1;5.5;;;;;;;24.86;64.99414;933.4844;;;;
2021/07/26 15:07:28;;;;;;;6.8;5.8;;;;;;;24.94;64.16992;933.533;;;;
2021/07/26 15:09:57;;;;;;;6.9;5.5;;;;;;;24.99;63.56152;933.4597;;;;
2021/07/26 15:12:22;;;;;;;6.3;5.7;;;;;;;25.02;63.62695;933.4255;;;;
2021/07/26 15:14:48;;;;;;;8;5.4;;;;;;;24.96;62.70801;933.331;;;;
2021/07/26 15:17:21;;;;;;;6.4;5.7;;;;;;;25.09;63.26953;933.4189;;;;
2021/07/26 15:19:44;;;;;;;6.5;5.7;;;;;;;25.05;63.57129;933.4072;;;;
2021/07/26 15:22:12;;;;;;;6;5.2;;;;;;;25.07;62.73633;933.4272;;;;
2021/07/26 15:24:42;;;;;;;6.2;5.3;;;;;;;24.97;63.28711;933.3566;;;;
2021/07/26 15:27:06;;;;;;;8.3;5.5;;;;;;;24.88;63.89941;933.2774;;;;
2021/07/26 15:29:35;;;;;;;6.3;5.7;;;;;;;25.12;63.27539;933.299;;;;
2021/07/26 15:32:00;;;;;;;6.3;5.7;;;;;;;25.05;63.02832;933.2703;;;;
2021/07/26 15:34:27;;;;;;;7.8;5.8;;;;;;;25.08;63.15039;933.1744;;;;
2021/07/26 15:36:53;;;;;;;5.9;5.3;;;;;;;25.13;63.12109;933.1553;;;;
2021/07/26 15:39:21;;;;;;;7.6;5.7;;;;;;;25.05;63.48926;933.1911;;;;
2021/07/26 15:41:47;;;;;;;6.4;5.8;;;;;;;24.92;63.6582;933.1973;;;;
2021/07/26 15:44:15;;;;;;;6.3;5.7;;;;;;;24.78;63.63867;933.1348;;;;
2021/07/26 15:46:40;;;;;;;6.2;5.6;;;;;;;24.73;63.36035;933.1727;;;;
2021/07/26 15:49:07;;;;;;;6.6;5.7;;;;;;;24.72;63.87793;933.2797;;;;